Time;durP1;ratioP1;P1;durP2;ratioP2;P2;SDS_P1;SDS_P2;PMS_P1;PMS_P2;Temp;Humidity;BMP_temperature;BMP_pressure;BME280_temperature;BME280_humidity;BME280_pressure;Samples;Min_cycle;Max_cycle;Signal;HPM_P1;HPM_P2
2022/01/03 00:01:33;;;;;;;0.93;0.20;;;9.90;99.90;;;;;;4942429;28;20017;-67
2022/01/03 00:03:58;;;;;;;0.35;0.20;;;9.90;99.90;;;;;;4940704;28;20122;-67
2022/01/03 00:06:24;;;;;;;;;;;9.90;99.90;;;;;;4942957;28;20558;-67
2022/01/03 00:08:49;;;;;;;0.70;0.28;;;9.90;99.90;;;;;;4943074;28;19954;-67
2022/01/03 00:11:19;;;;;;;;;;;9.90;99.90;;;;;;4943104;29;20011;-67
2022/01/03 00:13:48;;;;;;;0.68;0.20;;;9.90;99.90;;;;;;4942748;28;19914;-68
2022/01/03 00:16:14;;;;;;;2.20;0.68;;;9.80;99.90;;;;;;4941720;28;20047;-67
2022/01/03 00:18:40;;;;;;;1.50;0.73;;;9.80;99.90;;;;;;4941513;28;20027;-68
2022/01/03 00:21:11;;;;;;;1.75;0.20;;;9.80;99.90;;;;;;4942084;28;20019;-67
2022/01/03 00:23:38;;;;;;;0.63;0.20;;;9.80;99.90;;;;;;4940789;28;20055;-67
2022/01/03 00:26:07;;;;;;;0.45;0.17;;;9.80;99.90;;;;;;4941131;28;20039;-67
2022/01/03 00:28:48;;;;;;;0.43;0.30;;;9.80;99.90;;;;;;4942273;28;20439;-67
2022/01/03 00:31:17;;;;;;;0.70;0.43;;;9.80;99.90;;;;;;4941589;28;20038;-67
2022/01/03 00:33:42;;;;;;;0.32;0.20;;;9.80;99.90;;;;;;4942509;28;20030;-67
2022/01/03 00:36:08;;;;;;;;;;;9.80;99.90;;;;;;4942405;28;20039;-68
2022/01/03 00:38:35;;;;;;;2.72;0.43;;;9.80;99.90;;;;;;4941286;28;19917;-67
2022/01/03 00:41:02;;;;;;;0.50;0.28;;;9.80;99.90;;;;;;4941214;28;20078;-68
2022/01/03 00:43:29;;;;;;;2.30;0.20;;;9.70;99.90;;;;;;4943117;28;20038;-67
2022/01/03 00:45:55;;;;;;;1.00;0.17;;;9.70;99.90;;;;;;4941653;28;20515;-67
2022/01/03 00:48:21;;;;;;;0.45;0.20;;;9.70;99.90;;;;;;4941330;28;20035;-67
2022/01/03 00:50:47;;;;;;;;;;;9.70;99.90;;;;;;4942385;29;20034;-67
2022/01/03 00:53:14;;;;;;;0.45;0.40;;;9.80;99.90;;;;;;4942111;28;19915;-68
2022/01/03 00:55:50;;;;;;;1.85;0.28;;;9.80;99.90;;;;;;4941462;28;20566;-67
2022/01/03 00:58:19;;;;;;;0.98;0.40;;;9.90;99.90;;;;;;4942145;28;20039;-67
2022/01/03 01:00:47;;;;;;;1.95;0.73;;;9.90;99.90;;;;;;4941162;28;20430;-67
2022/01/03 01:03:25;;;;;;;1.48;0.43;;;9.90;99.90;;;;;;4942014;28;20090;-67
2022/01/03 01:05:53;;;;;;;2.53;0.60;;;9.90;99.90;;;;;;4941290;28;20399;-67
2022/01/03 01:08:23;;;;;;;1.48;0.88;;;10.00;99.90;;;;;;4941851;28;20031;-68
2022/01/03 01:10:52;;;;;;;4.97;1.77;;;10.00;99.90;;;;;;4941735;29;20039;-67
2022/01/03 01:13:18;;;;;;;3.78;0.80;;;10.10;99.90;;;;;;4945395;28;20167;-67
2022/01/03 01:15:44;;;;;;;2.45;0.70;;;10.20;99.90;;;;;;4945101;28;20035;-67
2022/01/03 01:18:10;;;;;;;;;;;10.20;99.90;;;;;;4946725;28;20057;-67
2022/01/03 01:20:39;;;;;;;1.35;0.77;;;10.30;99.90;;;;;;4944841;28;19911;-67
2022/01/03 01:23:06;;;;;;;2.83;1.10;;;10.30;99.90;;;;;;4945844;28;20758;-67
2022/01/03 01:28:00;;;;;;;1.92;0.70;;;10.30;99.90;;;;;;4945328;28;20035;-67
2022/01/03 01:30:27;;;;;;;;;;;10.30;99.90;;;;;;4946626;28;20035;-67
2022/01/03 01:33:08;;;;;;;3.67;0.83;;;10.30;99.90;;;;;;4945452;28;20301;-67
2022/01/03 01:35:52;;;;;;;5.22;0.93;;;10.40;99.90;;;;;;4944650;28;20050;-67
2022/01/03 01:38:21;;;;;;;5.90;1.02;;;10.40;99.90;;;;;;4944944;28;20123;-67
2022/01/03 01:40:59;;;;;;;1.88;1.25;;;10.50;99.90;;;;;;4943958;28;20036;-67
2022/01/03 01:43:36;;;;;;;2.55;0.57;;;10.50;99.90;;;;;;4944740;28;20090;-67
2022/01/03 01:46:05;;;;;;;3.55;0.85;;;10.50;99.90;;;;;;4945631;28;20453;-67
2022/01/03 01:48:34;;;;;;;3.65;1.30;;;10.60;99.90;;;;;;4944620;28;20019;-67
2022/01/03 01:51:01;;;;;;;3.97;0.90;;;10.60;99.90;;;;;;4944146;28;20031;-67
2022/01/03 01:53:27;;;;;;;3.25;0.77;;;10.50;99.90;;;;;;4945402;28;20034;-67
2022/01/03 01:55:55;;;;;;;3.67;0.70;;;10.60;99.90;;;;;;4944818;28;20053;-67
2022/01/03 01:58:34;;;;;;;5.32;1.10;;;10.60;99.90;;;;;;4944566;29;20494;-67
2022/01/03 02:01:04;;;;;;;6.38;0.60;;;10.60;99.90;;;;;;4944956;28;20039;-67
2022/01/03 02:03:39;;;;;;;2.53;0.63;;;10.60;99.90;;;;;;4944853;28;20027;-67
2022/01/03 02:06:25;;;;;;;4.75;1.17;;;10.60;99.90;;;;;;4945079;28;20031;-67
2022/01/03 02:09:04;;;;;;;2.05;1.00;;;10.60;99.90;;;;;;4944478;28;20063;-67
2022/01/03 02:11:58;;;;;;;4.65;0.70;;;10.60;99.90;;;;;;4944981;28;20102;-67
2022/01/03 02:14:26;;;;;;;2.25;0.93;;;10.60;99.90;;;;;;4941400;28;20062;-67
2022/01/03 02:16:53;;;;;;;5.10;0.80;;;10.60;99.90;;;;;;4945178;28;20036;-67
2022/01/03 02:19:19;;;;;;;3.60;0.90;;;10.50;99.90;;;;;;4945193;29;20511;-66
2022/01/03 02:21:45;;;;;;;6.28;0.93;;;10.50;99.90;;;;;;4945107;28;20399;-66
2022/01/03 02:24:11;;;;;;;11.13;1.77;;;10.40;99.90;;;;;;4942655;28;20034;-66
2022/01/03 02:26:37;;;;;;;;;;;10.30;99.90;;;;;;4945142;28;20086;-66
2022/01/03 02:29:03;;;;;;;6.60;1.08;;;10.30;99.90;;;;;;4944689;29;20370;-66
2022/01/03 02:31:28;;;;;;;2.72;0.77;;;10.10;99.90;;;;;;4944984;28;20024;-66
2022/01/03 02:33:54;;;;;;;;;;;9.90;99.90;;;;;;4945021;28;20083;-66
2022/01/03 02:36:20;;;;;;;0.82;0.30;;;9.80;99.90;;;;;;4944777;28;19910;-65
2022/01/03 02:38:46;;;;;;;;;;;9.60;99.90;;;;;;4944078;28;20031;-66
2022/01/03 02:41:12;;;;;;;2.63;0.50;;;9.50;99.90;;;;;;4943093;28;20314;-67
2022/01/03 02:43:38;;;;;;;4.32;0.70;;;9.40;99.90;;;;;;4943630;28;20047;-66
2022/01/03 02:46:03;;;;;;;;;;;9.20;99.90;;;;;;4944200;28;20047;-66
2022/01/03 02:48:29;;;;;;;3.45;0.52;;;9.20;99.90;;;;;;4943475;29;20398;-66
2022/01/03 02:50:55;;;;;;;;;;;9.10;99.90;;;;;;4944340;28;20118;-66
2022/01/03 02:53:21;;;;;;;6.43;1.23;;;9.10;99.90;;;;;;4943494;28;19911;-66
2022/01/03 02:55:47;;;;;;;6.70;0.90;;;9.00;99.90;;;;;;4943981;28;20043;-66
2022/01/03 02:58:13;;;;;;;;;;;9.00;99.90;;;;;;4942315;28;20138;-66
2022/01/03 03:00:45;;;;;;;3.08;0.70;;;9.00;99.90;;;;;;4944442;28;20527;-66
2022/01/03 03:03:15;;;;;;;3.83;1.00;;;9.00;99.90;;;;;;4943651;28;20058;-66
2022/01/03 03:05:41;;;;;;;3.38;0.50;;;9.00;99.90;;;;;;4943904;28;20498;-66
2022/01/03 03:08:07;;;;;;;6.95;1.02;;;9.10;99.90;;;;;;4943746;28;20027;-66
2022/01/03 03:10:33;;;;;;;;;;;9.10;99.90;;;;;;4943390;28;20091;-66
2022/01/03 03:12:58;;;;;;;6.53;0.90;;;9.10;99.90;;;;;;4942181;28;19911;-66
2022/01/03 03:15:24;;;;;;;;;;;9.20;99.90;;;;;;4944813;28;20035;-66
2022/01/03 03:17:50;;;;;;;5.97;1.10;;;9.20;99.90;;;;;;4943303;28;19946;-66
2022/01/03 03:20:18;;;;;;;2.85;1.10;;;9.30;99.90;;;;;;4943724;28;20027;-66
2022/01/03 03:22:44;;;;;;;7.43;1.20;;;9.30;99.90;;;;;;4943629;29;20074;-66
2022/01/03 03:25:16;;;;;;;8.40;1.17;;;9.40;99.90;;;;;;4942647;28;20513;-66
2022/01/03 03:27:45;;;;;;;4.15;1.00;;;9.40;99.90;;;;;;4943872;28;20027;-66
2022/01/03 03:30:23;;;;;;;10.70;2.53;;;9.50;99.90;;;;;;4942719;28;20036;-66
2022/01/03 03:32:51;;;;;;;6.35;1.77;;;9.50;99.90;;;;;;4943919;28;20053;-67
2022/01/03 03:35:17;;;;;;;5.47;2.00;;;9.50;99.90;;;;;;4943159;28;20038;-66
2022/01/03 03:37:43;;;;;;;3.85;1.48;;;9.60;99.90;;;;;;4943180;28;20062;-66
2022/01/03 03:40:09;;;;;;;;;;;9.60;99.90;;;;;;4943510;28;20098;-66
2022/01/03 03:42:34;;;;;;;7.50;1.48;;;9.60;99.90;;;;;;4942846;29;19913;-66
2022/01/03 03:45:00;;;;;;;5.45;1.88;;;9.60;99.90;;;;;;4941807;28;20107;-66
2022/01/03 03:47:25;;;;;;;12.10;1.25;;;9.60;99.90;;;;;;4942767;28;20123;-66
2022/01/03 03:49:51;;;;;;;;;;;9.50;99.90;;;;;;4942950;28;20038;-66
2022/01/03 03:52:17;;;;;;;6.65;3.00;;;9.50;99.90;;;;;;4943147;28;20557;-66
2022/01/03 03:54:42;;;;;;;;;;;9.50;99.90;;;;;;4942881;28;20043;-66
2022/01/03 03:57:08;;;;;;;6.38;1.48;;;9.50;99.90;;;;;;4942667;28;20308;-67
2022/01/03 03:59:34;;;;;;;;;;;9.50;99.90;;;;;;4942491;28;20506;-66
2022/01/03 04:02:00;;;;;;;9.00;1.38;;;9.50;99.90;;;;;;4942218;28;20033;-67
2022/01/03 04:04:25;;;;;;;;;;;9.50;99.90;;;;;;4943045;28;20126;-66
2022/01/03 04:06:51;;;;;;;8.15;2.33;;;9.50;99.90;;;;;;4942736;28;20504;-66
2022/01/03 04:09:17;;;;;;;16.65;1.50;;;9.60;99.90;;;;;;4942751;28;20042;-66
2022/01/03 04:11:42;;;;;;;;;;;9.60;99.90;;;;;;4942814;28;20122;-66
2022/01/03 04:14:08;;;;;;;9.32;2.35;;;9.60;99.90;;;;;;4941642;28;19918;-66
2022/01/03 04:16:34;;;;;;;11.35;1.75;;;9.60;99.90;;;;;;4942526;28;20035;-66
2022/01/03 04:19:00;;;;;;;8.55;1.50;;;9.60;99.90;;;;;;4942369;28;20035;-66
2022/01/03 04:21:26;;;;;;;;;;;9.50;99.90;;;;;;4942581;28;20031;-66
2022/01/03 04:23:53;;;;;;;12.25;2.13;;;9.50;99.90;;;;;;4942541;28;19922;-66
2022/01/03 04:26:19;;;;;;;7.90;1.38;;;9.50;99.90;;;;;;4941990;28;20031;-66
2022/01/03 04:28:44;;;;;;;;;;;9.50;99.90;;;;;;4943107;28;20065;-66
2022/01/03 04:31:10;;;;;;;5.65;1.23;;;9.50;99.90;;;;;;4942956;28;20366;-66
2022/01/03 04:33:36;;;;;;;;;;;9.50;99.90;;;;;;4942519;28;20042;-66
2022/01/03 04:36:03;;;;;;;13.18;1.90;;;9.50;99.90;;;;;;4940902;28;19911;-66
2022/01/03 04:38:28;;;;;;;6.85;1.23;;;9.50;99.90;;;;;;4943190;28;20043;-66
2022/01/03 04:40:54;;;;;;;;;;;9.50;99.90;;;;;;4943102;28;20036;-66
2022/01/03 04:43:19;;;;;;;13.00;3.58;;;9.50;99.90;;;;;;4941711;28;19926;-67
2022/01/03 04:45:45;;;;;;;;;;;9.50;99.90;;;;;;4943123;28;20031;-66
2022/01/03 04:48:10;;;;;;;4.40;0.98;;;9.50;99.90;;;;;;4940661;28;19914;-66
2022/01/03 04:50:36;;;;;;;;;;;9.50;99.90;;;;;;4942435;28;20477;-67
2022/01/03 04:53:01;;;;;;;5.80;1.13;;;9.50;99.90;;;;;;4940455;28;19911;-66
2022/01/03 04:55:27;;;;;;;8.95;1.20;;;9.60;99.90;;;;;;4942126;28;20086;-66
2022/01/03 04:57:53;;;;;;;8.32;2.85;;;9.60;99.90;;;;;;4940895;29;20058;-66
2022/01/03 05:00:19;;;;;;;;;;;9.60;99.90;;;;;;4942376;28;20379;-66
2022/01/03 05:02:44;;;;;;;7.95;2.88;;;9.60;99.90;;;;;;4942234;29;19914;-67
2022/01/03 05:05:11;;;;;;;9.10;2.00;;;9.60;99.90;;;;;;4941611;28;20101;-66
2022/01/03 05:07:37;;;;;;;6.28;1.98;;;9.60;99.90;;;;;;4941702;29;20027;-66
2022/01/03 05:10:03;;;;;;;;;;;9.60;99.90;;;;;;4941434;28;20031;-66
2022/01/03 05:12:29;;;;;;;11.18;1.05;;;9.60;99.90;;;;;;4941345;28;20266;-66
2022/01/03 05:14:54;;;;;;;;;;;9.60;99.90;;;;;;4942293;28;20035;-67
2022/01/03 05:17:20;;;;;;;5.45;1.23;;;9.70;99.90;;;;;;4941798;28;19915;-66
2022/01/03 05:19:45;;;;;;;;;;;9.60;99.90;;;;;;4942366;28;20031;-66
2022/01/03 05:22:11;;;;;;;7.05;2.45;;;9.70;99.90;;;;;;4941659;28;19918;-66
2022/01/03 05:24:37;;;;;;;;;;;9.60;99.90;;;;;;4942519;28;20040;-66
2022/01/03 05:27:05;;;;;;;5.93;1.60;;;9.60;99.90;;;;;;4941438;28;20005;-67
2022/01/03 05:29:31;;;;;;;12.60;1.83;;;9.60;99.90;;;;;;4942415;28;20042;-66
2022/01/03 05:31:57;;;;;;;;;;;9.60;99.90;;;;;;4942184;28;20036;-66
2022/01/03 05:34:22;;;;;;;9.85;2.22;;;9.60;99.90;;;;;;4942042;28;19997;-66
2022/01/03 05:36:48;;;;;;;10.98;1.95;;;9.50;99.90;;;;;;4940555;28;20043;-66
2022/01/03 05:39:13;;;;;;;12.07;2.35;;;9.40;99.90;;;;;;4942429;28;20036;-66
2022/01/03 05:41:39;;;;;;;;;;;9.30;99.90;;;;;;4941783;29;20042;-66
2022/01/03 05:44:05;;;;;;;10.50;2.33;;;9.30;99.90;;;;;;4956261;23;19970;-70
2022/01/03 05:46:30;;;;;;;8.23;1.60;;;9.20;99.90;;;;;;4942121;28;20019;-69
2022/01/03 05:48:56;;;;;;;10.48;1.75;;;9.20;99.90;;;;;;4943245;28;20035;-69
2022/01/03 05:51:21;;;;;;;;;;;9.20;99.90;;;;;;4942369;28;20028;-70
2022/01/03 05:53:47;;;;;;;10.45;2.70;;;9.20;99.90;;;;;;4942707;28;19914;-72
2022/01/03 05:56:13;;;;;;;;;;;9.30;99.90;;;;;;4942597;29;20034;-71
2022/01/03 05:58:38;;;;;;;7.53;1.55;;;9.30;99.90;;;;;;4943896;28;19989;-72
2022/01/03 06:01:04;;;;;;;;;;;9.30;99.90;;;;;;4945924;29;20122;-72
2022/01/03 06:03:37;;;;;;;14.10;2.58;;;9.30;99.90;;;;;;4945585;29;19952;-72
2022/01/03 06:06:53;;;;;;;7.03;1.92;;;9.30;99.90;;;;;;4945825;29;20027;-72
2022/01/03 06:08:49;;;;;;;19.30;2.35;;;9.20;99.90;;;;;;4945581;28;20110;-72
2022/01/03 06:11:15;;;;;;;;;;;9.20;99.90;;;;;;4946358;28;20032;-72
2022/01/03 06:13:40;;;;;;;18.98;2.47;;;9.20;99.90;;;;;;4945338;29;19910;-72
2022/01/03 06:16:07;;;;;;;;;;;9.30;99.90;;;;;;4946176;29;20035;-72
2022/01/03 06:18:32;;;;;;;23.00;3.22;;;9.30;99.90;;;;;;4945571;29;19911;-72
2022/01/03 06:20:58;;;;;;;;;;;9.30;99.90;;;;;;4945404;29;20035;-71
2022/01/03 06:23:23;;;;;;;10.43;3.00;;;9.30;99.90;;;;;;4944679;28;19911;-71
2022/01/03 06:25:49;;;;;;;;;;;9.30;99.90;;;;;;4946706;28;20083;-71
2022/01/03 06:28:14;;;;;;;8.10;2.38;;;9.30;99.90;;;;;;4945657;28;19910;-71
2022/01/03 06:30:41;;;;;;;;;;;9.30;99.90;;;;;;4945418;28;20087;-71
2022/01/03 06:33:08;;;;;;;11.75;3.30;;;9.30;99.90;;;;;;4946059;29;19910;-72
2022/01/03 06:35:34;;;;;;;8.73;2.25;;;9.30;99.90;;;;;;4945277;28;20031;-71
2022/01/03 06:38:00;;;;;;;;;;;9.30;99.90;;;;;;4945792;29;20045;-72
2022/01/03 06:40:26;;;;;;;7.88;2.30;;;9.30;99.90;;;;;;4943870;28;19918;-71
2022/01/03 06:42:52;;;;;;;;;;;9.30;99.90;;;;;;4945632;29;20067;-71
2022/01/03 06:45:17;;;;;;;14.98;2.78;;;9.40;99.90;;;;;;4944517;28;19914;-72
2022/01/03 06:47:43;;;;;;;13.23;3.33;;;9.40;99.90;;;;;;4945255;29;20437;-71
2022/01/03 06:50:09;;;;;;;14.60;3.60;;;9.30;99.90;;;;;;4945409;29;20059;-72
2022/01/03 06:52:36;;;;;;;10.95;4.25;;;9.30;99.90;;;;;;4944686;29;20054;-72
2022/01/03 06:55:02;;;;;;;16.30;2.83;;;9.30;99.90;;;;;;4944172;28;20538;-71
2022/01/03 06:57:29;;;;;;;13.35;4.57;;;9.30;99.90;;;;;;4943471;28;20038;-71
2022/01/03 06:59:54;;;;;;;10.88;3.38;;;9.20;99.90;;;;;;4944490;28;20031;-72
2022/01/03 07:02:21;;;;;;;;;;;9.10;99.90;;;;;;4945945;28;20093;-71
2022/01/03 07:04:46;;;;;;;15.93;3.65;;;9.10;99.90;;;;;;4944364;29;19921;-71
2022/01/03 07:07:12;;;;;;;;;;;9.00;99.90;;;;;;4944956;29;20027;-71
2022/01/03 07:09:37;;;;;;;12.73;2.80;;;9.10;99.90;;;;;;4943112;28;20319;-72
2022/01/03 07:12:03;;;;;;;;;;;9.00;99.90;;;;;;4945299;29;20035;-71
2022/01/03 07:19:41;;;;;;;10.38;2.67;;;8.90;99.90;;;;;;4944059;29;19921;-71
2022/01/03 07:22:08;;;;;;;16.02;2.85;;;9.00;99.90;;;;;;4943944;29;20035;-71
2022/01/03 07:24:39;;;;;;;13.32;2.92;;;9.00;99.90;;;;;;4943693;29;20039;-72
2022/01/03 07:27:06;;;;;;;20.02;3.30;;;9.00;99.90;;;;;;4944807;29;20162;-72
2022/01/03 07:29:32;;;;;;;5.20;2.70;;;9.10;99.90;;;;;;4943131;28;20051;-72
2022/01/03 07:31:58;;;;;;;12.45;3.65;;;9.10;99.90;;;;;;4944743;29;20042;-71
2022/01/03 07:34:23;;;;;;;;;;;9.20;99.90;;;;;;4944408;28;20023;-72
2022/01/03 07:36:49;;;;;;;11.30;3.63;;;9.20;99.90;;;;;;4943785;29;20401;-71
2022/01/03 07:39:14;;;;;;;;;;;9.10;99.90;;;;;;4943799;29;20024;-73
2022/01/03 07:41:40;;;;;;;11.30;3.53;;;9.10;99.90;;;;;;4943074;28;20001;-73
2022/01/03 07:44:05;;;;;;;;;;;9.10;99.90;;;;;;4942868;28;20121;-73
2022/01/03 07:46:31;;;;;;;15.52;3.53;;;9.10;99.90;;;;;;4942728;28;20018;-71
2022/01/03 07:48:57;;;;;;;;;;;9.10;99.90;;;;;;4943229;28;20023;-73
2022/01/03 07:51:22;;;;;;;17.60;5.45;;;9.10;99.90;;;;;;4942999;28;19921;-71
2022/01/03 07:53:48;;;;;;;12.48;5.90;;;9.20;99.90;;;;;;4943485;28;20123;-72
2022/01/03 07:56:24;;;;;;;;;;;9.20;99.90;;;;;;4943770;28;20104;-71
2022/01/03 07:58:49;;;;;;;17.60;5.05;;;9.30;99.90;;;;;;4943622;28;19921;-72
2022/01/03 08:01:15;;;;;;;;;;;9.30;99.90;;;;;;4943663;28;20020;-72
2022/01/03 08:03:41;;;;;;;11.20;3.97;;;9.30;99.90;;;;;;4943538;28;20012;-71
2022/01/03 08:06:08;;;;;;;;;;;9.40;99.90;;;;;;4942870;28;20435;-71
2022/01/03 08:08:33;;;;;;;9.05;3.97;;;9.40;99.90;;;;;;4941776;28;19950;-73
2022/01/03 08:10:59;;;;;;;;;;;9.40;99.90;;;;;;4943104;28;20169;-73
2022/01/03 08:13:25;;;;;;;6.57;3.05;;;9.40;99.90;;;;;;4943198;29;19911;-71
2022/01/03 08:15:50;;;;;;;10.95;3.47;;;9.40;99.90;;;;;;4942523;28;20035;-72
2022/01/03 08:18:16;;;;;;;;;;;9.40;99.90;;;;;;4944539;28;20442;-72
2022/01/03 08:20:41;;;;;;;10.45;3.20;;;9.50;99.90;;;;;;4941805;29;19969;-71
2022/01/03 08:23:07;;;;;;;;;;;9.50;99.90;;;;;;4943028;28;20111;-72
2022/01/03 08:25:37;;;;;;;13.20;4.28;;;9.50;99.90;;;;;;4942888;28;20822;-72
2022/01/03 08:28:04;;;;;;;13.60;3.25;;;9.60;99.90;;;;;;4943943;28;20038;-71
2022/01/03 08:30:30;;;;;;;13.48;3.33;;;9.60;99.90;;;;;;4943137;29;20031;-72
2022/01/03 08:32:55;;;;;;;;;;;9.60;99.90;;;;;;4943867;29;20216;-71
2022/01/03 08:35:22;;;;;;;12.00;3.40;;;9.60;99.90;;;;;;4942454;28;20363;-72
2022/01/03 08:37:48;;;;;;;19.75;4.13;;;9.60;99.90;;;;;;4942369;28;20035;-71
2022/01/03 08:40:13;;;;;;;;;;;9.60;99.90;;;;;;4942398;28;20507;-71
2022/01/03 08:42:39;;;;;;;14.65;4.80;;;9.70;99.90;;;;;;4942325;29;19950;-73
2022/01/03 08:45:04;;;;;;;;;;;9.70;99.90;;;;;;4942376;28;20121;-72
2022/01/03 08:47:30;;;;;;;11.88;3.03;;;9.70;99.90;;;;;;4942729;29;20418;-71
2022/01/03 08:49:56;;;;;;;13.00;4.18;;;9.70;99.90;;;;;;4942539;29;20043;-71
2022/01/03 08:52:21;;;;;;;;;;;9.70;99.90;;;;;;4943151;29;20035;-72
2022/01/03 08:54:48;;;;;;;12.63;3.28;;;9.70;99.90;;;;;;4941944;28;19912;-72
2022/01/03 08:57:13;;;;;;;9.18;3.33;;;9.80;99.90;;;;;;4941870;28;20254;-73
2022/01/03 08:59:39;;;;;;;;;;;9.80;99.90;;;;;;4943993;28;20387;-73
2022/01/03 09:02:04;;;;;;;11.27;4.88;;;9.80;99.90;;;;;;4943055;29;20021;-73
2022/01/03 09:04:30;;;;;;;15.20;3.92;;;9.80;99.90;;;;;;4943798;28;20039;-72
2022/01/03 09:06:57;;;;;;;;;;;9.90;99.90;;;;;;4942969;29;20569;-72
2022/01/03 09:09:23;;;;;;;20.00;5.22;;;9.90;99.90;;;;;;4942586;29;19997;-72
2022/01/03 09:11:48;;;;;;;;;;;9.90;99.90;;;;;;4942951;28;20102;-72
2022/01/03 09:14:14;;;;;;;10.23;3.38;;;9.90;99.90;;;;;;4942185;28;20013;-72
2022/01/03 09:16:40;;;;;;;19.35;4.88;;;9.90;99.90;;;;;;4940695;28;20038;-69
2022/01/03 09:19:05;;;;;;;;;;;9.90;99.90;;;;;;4942013;29;20031;-73
2022/01/03 09:21:31;;;;;;;9.98;2.70;;;10.30;99.90;;;;;;4941892;28;19911;-72
2022/01/03 09:24:19;;;;;;;11.57;3.08;;;10.60;99.90;;;;;;4941184;28;20515;-74
2022/01/03 09:29:26;;;;;;;14.68;3.80;;;10.40;99.90;;;;;;4941582;29;20089;-73
2022/01/03 09:31:52;;;;;;;;;;;10.40;99.90;;;;;;4942830;28;20028;-75
2022/01/03 09:34:17;;;;;;;8.65;2.53;;;10.40;99.90;;;;;;4946160;28;20267;-72
2022/01/03 09:36:43;;;;;;;;;;;10.40;99.90;;;;;;4946200;29;20447;-72
2022/01/03 09:39:08;;;;;;;10.35;3.00;;;10.40;99.90;;;;;;4946118;28;19918;-72
2022/01/03 09:41:34;;;;;;;;;;;10.40;99.90;;;;;;4946442;29;20027;-73
2022/01/03 09:44:03;;;;;;;12.07;3.20;;;10.40;99.90;;;;;;4947130;28;20418;-72
2022/01/03 09:46:37;;;;;;;11.38;4.22;;;10.40;99.90;;;;;;4945442;29;20110;-70
2022/01/03 09:49:08;;;;;;;14.05;2.78;;;10.50;99.90;;;;;;4945318;28;20566;-71
2022/01/03 09:51:34;;;;;;;8.70;3.30;;;10.60;99.90;;;;;;4944108;28;20071;-70
2022/01/03 09:54:03;;;;;;;16.23;4.07;;;10.60;99.90;;;;;;4940919;28;20440;-70
2022/01/03 09:56:32;;;;;;;9.50;2.60;;;10.70;99.90;;;;;;4942884;29;20107;-70
2022/01/03 09:59:00;;;;;;;9.85;4.03;;;10.70;99.90;;;;;;4943579;29;20023;-70
2022/01/03 10:01:26;;;;;;;11.02;3.38;;;10.70;99.90;;;;;;4943946;28;20027;-70
2022/01/03 10:03:52;;;;;;;13.63;3.38;;;10.70;99.90;;;;;;4943206;29;20547;-70
2022/01/03 10:06:18;;;;;;;;;;;10.70;99.90;;;;;;4944484;28;20119;-70
2022/01/03 10:08:44;;;;;;;11.73;2.97;;;10.80;99.90;;;;;;4943847;28;19918;-70
2022/01/03 10:11:10;;;;;;;16.08;3.53;;;10.80;99.90;;;;;;4943833;29;20039;-70
2022/01/03 10:13:36;;;;;;;;;;;10.80;99.90;;;;;;4945127;28;20095;-70
2022/01/03 10:16:02;;;;;;;12.18;2.90;;;10.70;99.90;;;;;;4945575;28;19914;-70
2022/01/03 10:18:27;;;;;;;;;;;10.70;99.90;;;;;;4944973;29;20075;-70
2022/01/03 10:20:54;;;;;;;9.45;3.45;;;10.70;99.90;;;;;;4945083;28;19918;-70
2022/01/03 10:23:19;;;;;;;10.07;3.08;;;10.70;99.90;;;;;;4944521;28;20062;-70
2022/01/03 10:25:48;;;;;;;;;;;10.80;99.90;;;;;;4945102;29;20055;-70
2022/01/03 10:28:25;;;;;;;15.00;3.35;;;10.90;99.90;;;;;;4943984;29;19935;-70
2022/01/03 10:30:52;;;;;;;11.98;2.78;;;11.00;99.90;;;;;;4945097;29;20046;-70
2022/01/03 10:33:21;;;;;;;14.82;3.35;;;11.00;99.90;;;;;;4944316;28;20106;-70
2022/01/03 10:35:52;;;;;;;14.23;3.40;;;11.00;99.90;;;;;;4944518;29;20055;-70
2022/01/03 10:38:45;;;;;;;10.77;2.50;;;11.00;99.90;;;;;;4944138;29;20102;-70
2022/01/03 10:41:15;;;;;;;16.27;2.88;;;11.10;99.90;;;;;;4944815;28;20051;-70
2022/01/03 10:43:43;;;;;;;10.32;2.88;;;11.20;99.90;;;;;;4944053;28;20114;-70
2022/01/03 10:46:23;;;;;;;9.60;3.17;;;11.30;99.90;;;;;;4943433;29;20492;-70
2022/01/03 10:48:49;;;;;;;13.18;3.63;;;11.40;99.90;;;;;;4944193;28;20030;-70
2022/01/03 10:51:26;;;;;;;9.35;2.33;;;11.40;99.80;;;;;;4944058;29;20078;-70
2022/01/03 10:53:54;;;;;;;13.40;2.78;;;11.50;99.80;;;;;;4943864;28;20045;-69
2022/01/03 10:56:40;;;;;;;13.75;3.28;;;11.50;99.90;;;;;;4943749;29;20023;-70
2022/01/03 10:59:24;;;;;;;11.52;2.60;;;11.40;99.90;;;;;;4944216;29;20038;-70
2022/01/03 11:01:59;;;;;;;10.68;1.88;;;11.30;99.90;;;;;;4943641;28;20044;-70
2022/01/03 11:04:36;;;;;;;10.82;2.80;;;11.30;99.90;;;;;;4943798;28;20031;-70
2022/01/03 11:10:43;;;;;;;10.95;2.20;;;11.20;99.90;;;;;;4944024;29;20028;-69
2022/01/03 11:13:15;;;;;;;8.60;2.63;;;11.20;99.80;;;;;;4943870;29;20050;-69
2022/01/03 11:15:55;;;;;;;9.60;2.58;;;11.10;99.90;;;;;;4944045;28;20035;-69
2022/01/03 11:18:29;;;;;;;13.77;3.08;;;11.10;99.90;;;;;;4943825;28;20031;-69
2022/01/03 11:21:16;;;;;;;9.02;2.40;;;11.10;99.90;;;;;;4944256;29;20381;-68
2022/01/03 11:23:45;;;;;;;10.38;2.88;;;11.10;99.90;;;;;;4944010;28;20036;-69
2022/01/03 11:26:16;;;;;;;11.40;2.22;;;11.10;99.90;;;;;;4944722;29;20049;-69
2022/01/03 11:28:43;;;;;;;12.05;2.70;;;11.10;99.70;;;;;;4944023;29;20054;-72
2022/01/03 11:31:10;;;;;;;9.07;2.15;;;11.20;99.90;;;;;;4941669;28;20039;-69
2022/01/03 11:33:36;;;;;;;15.65;2.83;;;11.20;99.90;;;;;;4943638;28;20114;-70
2022/01/03 11:36:03;;;;;;;9.60;2.78;;;11.30;99.90;;;;;;4943363;29;20511;-70
2022/01/03 11:38:30;;;;;;;12.30;2.55;;;11.30;99.90;;;;;;4941981;29;20078;-69
2022/01/03 11:41:01;;;;;;;10.38;2.95;;;11.40;99.90;;;;;;4942159;28;20476;-70
2022/01/03 11:43:29;;;;;;;14.20;2.45;;;11.50;99.20;;;;;;4942208;28;20031;-67
2022/01/03 11:45:55;;;;;;;19.63;3.20;;;11.50;99.00;;;;;;4991190;23;20049;-74
2022/01/03 11:48:20;;;;;;;;;;;11.50;99.00;;;;;;4981270;28;20037;-74
2022/01/03 11:50:49;;;;;;;4.72;2.17;;;11.50;99.20;;;;;;4980430;28;19910;-74
2022/01/03 11:53:20;;;;;;;9.75;2.53;;;11.50;99.30;;;;;;4981820;28;20054;-75
2022/01/03 11:55:50;;;;;;;7.47;2.30;;;11.40;99.40;;;;;;4981195;28;20923;-75
2022/01/03 12:04:11;;;;;;;8.10;2.20;;;11.40;99.30;;;;;;4980405;28;20158;-75
2022/01/03 12:06:36;;;;;;;9.00;2.75;;;11.40;99.30;;;;;;4981324;28;20034;-75
2022/01/03 12:09:10;;;;;;;;;;;11.50;99.60;;;;;;4981445;28;20026;-74
2022/01/03 12:11:46;;;;;;;6.72;2.65;;;11.60;99.40;;;;;;4981843;28;19917;-75
2022/01/03 12:14:14;;;;;;;11.57;2.65;;;11.60;99.00;;;;;;4981034;28;20092;-75
2022/01/03 12:16:50;;;;;;;11.18;1.58;;;11.70;99.10;;;;;;4995471;28;20034;-74
2022/01/03 12:19:24;;;;;;;10.32;2.88;;;11.70;98.90;;;;;;4980701;28;20089;-75
2022/01/03 12:21:53;;;;;;;9.68;2.13;;;11.80;99.00;;;;;;4978750;28;20132;-74
2022/01/03 12:24:36;;;;;;;10.07;2.97;;;11.90;98.90;;;;;;4980432;28;20033;-74
2022/01/03 12:27:13;;;;;;;4.57;2.22;;;11.80;99.20;;;;;;4980447;28;20022;-73
2022/01/03 12:29:57;;;;;;;4.57;1.65;;;11.80;99.20;;;;;;4980866;28;20042;-72
2022/01/03 12:32:25;;;;;;;8.75;1.83;;;11.80;98.90;;;;;;4980162;28;20430;-72
2022/01/03 12:35:16;;;;;;;11.18;1.80;;;11.90;98.90;;;;;;4980065;28;20030;-72
2022/01/03 12:37:44;;;;;;;7.88;1.67;;;11.90;99.30;;;;;;4980492;28;20156;-72
2022/01/03 12:40:18;;;;;;;6.57;2.03;;;11.90;99.00;;;;;;4974817;28;20040;-73
2022/01/03 12:42:51;;;;;;;5.78;2.25;;;11.90;99.10;;;;;;4977776;28;20031;-73
2022/01/03 12:45:29;;;;;;;5.85;2.08;;;11.80;99.20;;;;;;4978795;28;20118;-73
2022/01/03 12:48:09;;;;;;;8.65;2.25;;;11.80;99.30;;;;;;4979026;28;20513;-73
2022/01/03 12:50:38;;;;;;;5.32;2.38;;;11.70;99.30;;;;;;4979332;28;20045;-73
2022/01/03 12:53:04;;;;;;;12.18;2.88;;;11.70;99.30;;;;;;4978033;28;20411;-74
2022/01/03 12:55:41;;;;;;;11.85;2.97;;;11.60;99.60;;;;;;4974442;28;20692;-73
2022/01/03 12:58:18;;;;;;;9.43;2.17;;;11.70;99.60;;;;;;4979219;28;20096;-74
2022/01/03 13:00:52;;;;;;;7.93;2.33;;;11.60;99.50;;;;;;4979931;28;20022;-73
2022/01/03 13:03:37;;;;;;;7.25;2.25;;;11.60;99.50;;;;;;4976157;28;20042;-73
2022/01/03 13:06:05;;;;;;;6.97;1.73;;;11.60;99.40;;;;;;4975078;28;20041;-73
2022/01/03 13:08:32;;;;;;;8.32;2.45;;;11.60;99.70;;;;;;4978536;28;20919;-72
2022/01/03 13:11:02;;;;;;;7.88;2.10;;;11.50;99.60;;;;;;4978267;28;20566;-72
2022/01/03 13:13:28;;;;;;;9.77;3.35;;;11.50;99.60;;;;;;4977522;28;20031;-72
2022/01/03 13:15:55;;;;;;;;;;;11.40;99.70;;;;;;4979316;28;20035;-73
2022/01/03 13:18:20;;;;;;;11.53;2.10;;;11.40;99.70;;;;;;4973641;28;19920;-72
2022/01/03 13:20:55;;;;;;;;;;;11.40;99.70;;;;;;4974562;28;20026;-72
2022/01/03 13:23:21;;;;;;;9.82;1.90;;;11.40;99.80;;;;;;4973520;28;20378;-73
2022/01/03 13:25:46;;;;;;;;;;;11.40;99.60;;;;;;4980027;28;20531;-73
2022/01/03 13:28:12;;;;;;;8.77;1.77;;;11.40;99.70;;;;;;4972179;28;20397;-72
2022/01/03 13:30:37;;;;;;;;;;;11.40;99.80;;;;;;4972183;28;20026;-72
2022/01/03 13:33:03;;;;;;;6.63;1.77;;;11.40;99.60;;;;;;4971527;28;19920;-72
2022/01/03 13:35:28;;;;;;;;;;;11.40;99.60;;;;;;4978041;28;20117;-72